Time;durP1;ratioP1;P1;durP2;ratioP2;P2;SDS_P1;SDS_P2;PMS_P1;PMS_P2;Temp;Humidity;BMP_temperature;BMP_pressure;BME280_temperature;BME280_humidity;BME280_pressure;Samples;Min_cycle;Max_cycle;Signal;HPM_P1;HPM_P2
2022/05/21 00:00:46;;;;;;;5.70;3.90;;;;;;;;;;1659641;85;21516;-69
2022/05/21 00:03:12;;;;;;;7.22;4.47;;;;;;;;;;1674517;85;21128;-69
2022/05/21 00:05:38;;;;;;;7.85;4.40;;;;;;;;;;1658178;86;21059;-68
2022/05/21 00:08:07;;;;;;;6.33;4.65;;;;;;;;;;1660350;85;21032;-69
2022/05/21 00:10:34;;;;;;;7.97;4.90;;;;;;;;;;1668130;85;21519;-69
2022/05/21 00:13:01;;;;;;;6.78;4.25;;;;;;;;;;1659352;85;21008;-69
2022/05/21 00:15:29;;;;;;;7.33;4.05;;;;;;;;;;1657949;86;21086;-69
2022/05/21 00:17:55;;;;;;;7.70;4.30;;;;;;;;;;1669215;85;21047;-69
2022/05/21 00:23:19;;;;;;;6.05;3.90;;;;;;;;;;1653187;85;21080;-69
2022/05/21 00:25:46;;;;;;;;;;;;;;;;;;1677863;85;21087;-69
2022/05/21 00:28:12;;;;;;;6.35;3.80;;;;;;;;;;1673891;85;20583;-68
2022/05/21 00:30:38;;;;;;;7.20;4.25;;;;;;;;;;1660702;85;21024;-69
2022/05/21 00:33:04;;;;;;;6.05;3.90;;;;;;;;;;1670784;85;21488;-69
2022/05/21 00:35:31;;;;;;;7.17;4.28;;;;;;;;;;1660858;85;21131;-69
2022/05/21 00:37:57;;;;;;;8.48;3.70;;;;;;;;;;1674667;85;21055;-69
2022/05/21 00:40:22;;;;;;;6.55;3.75;;;;;;;;;;1658058;86;21063;-69
2022/05/21 00:42:49;;;;;;;7.35;3.70;;;;;;;;;;1664792;85;21043;-69
2022/05/21 00:45:14;;;;;;;6.45;4.03;;;;;;;;;;1675616;85;21590;-69
2022/05/21 00:47:42;;;;;;;7.25;4.12;;;;;;;;;;1676329;85;21052;-69
2022/05/21 00:50:08;;;;;;;6.47;3.58;;;;;;;;;;1658083;86;21084;-69
2022/05/21 00:52:35;;;;;;;5.95;3.80;;;;;;;;;;1676067;85;21021;-69
2022/05/21 00:55:06;;;;;;;5.87;3.80;;;;;;;;;;1660782;85;21068;-70
2022/05/21 00:57:34;;;;;;;5.55;3.90;;;;;;;;;;1661607;85;21642;-68
2022/05/21 01:00:10;;;;;;;4.87;3.58;;;;;;;;;;1691282;84;21112;-68
2022/05/21 01:05:22;;;;;;;8.38;3.60;;;;;;;;;;1637033;86;21121;-68
2022/05/21 01:07:48;;;;;;;6.25;3.80;;;;;;;;;;1622272;88;21072;-68
2022/05/21 01:10:15;;;;;;;8.28;3.98;;;;;;;;;;1667138;86;21097;-67
2022/05/21 01:12:43;;;;;;;4.85;3.85;;;;;;;;;;1667617;86;21049;-68
2022/05/21 01:15:10;;;;;;;4.90;3.77;;;;;;;;;;1654705;86;21137;-68
2022/05/21 01:17:36;;;;;;;5.37;3.65;;;;;;;;;;1667035;86;21517;-68
2022/05/21 01:20:04;;;;;;;5.22;3.67;;;;;;;;;;1661865;86;21064;-68
2022/05/21 01:22:31;;;;;;;5.30;3.70;;;;;;;;;;1663826;86;21547;-68
2022/05/21 01:24:57;;;;;;;8.23;3.80;;;;;;;;;;1659457;86;21030;-68
2022/05/21 01:27:24;;;;;;;4.40;3.35;;;;;;;;;;1656248;86;21075;-68
2022/05/21 01:29:51;;;;;;;8.18;3.52;;;;;;;;;;1664974;86;21063;-68
2022/05/21 01:32:17;;;;;;;5.37;3.83;;;;;;;;;;1660705;86;21515;-67
2022/05/21 01:34:44;;;;;;;6.95;3.90;;;;;;;;;;1663797;86;21089;-68
2022/05/21 01:37:11;;;;;;;6.87;3.83;;;;;;;;;;1667758;86;21092;-68
2022/05/21 01:39:37;;;;;;;5.22;3.67;;;;;;;;;;1656341;86;21075;-68
2022/05/21 01:42:03;;;;;;;7.62;3.72;;;;;;;;;;1666975;86;21571;-68
2022/05/21 01:44:38;;;;;;;6.72;3.67;;;;;;;;;;1656432;86;21055;-68
2022/05/21 01:47:10;;;;;;;4.20;3.47;;;;;;;;;;1659435;86;21109;-68
2022/05/21 01:49:36;;;;;;;5.47;3.65;;;;;;;;;;1622802;88;21107;-68
2022/05/21 01:52:04;;;;;;;8.20;3.85;;;;;;;;;;1642066;87;21096;-68
2022/05/21 01:54:31;;;;;;;6.90;3.77;;;;;;;;;;1642893;87;22265;-67
2022/05/21 01:56:57;;;;;;;4.90;3.85;;;;;;;;;;1642399;87;21031;-67
2022/05/21 01:59:24;;;;;;;7.87;3.80;;;;;;;;;;1642663;87;21100;-68
2022/05/21 02:01:50;;;;;;;7.95;3.92;;;;;;;;;;1643257;87;21063;-68
2022/05/21 02:04:16;;;;;;;6.92;3.72;;;;;;;;;;1611119;87;21627;-68
2022/05/21 02:06:42;;;;;;;5.20;3.60;;;;;;;;;;1585302;90;21080;-68
2022/05/21 02:09:08;;;;;;;5.87;3.67;;;;;;;;;;1592843;90;21125;-67
2022/05/21 02:11:37;;;;;;;7.25;4.08;;;;;;;;;;1589324;90;21104;-68
2022/05/21 02:14:04;;;;;;;7.83;4.10;;;;;;;;;;1585180;90;21112;-67
2022/05/21 02:16:34;;;;;;;9.28;3.98;;;;;;;;;;1595221;90;21596;-68
2022/05/21 02:19:01;;;;;;;5.62;3.70;;;;;;;;;;1598724;90;21145;-68
2022/05/21 02:21:28;;;;;;;7.22;4.25;;;;;;;;;;1591407;90;21029;-67
2022/05/21 02:23:54;;;;;;;7.65;4.50;;;;;;;;;;1590819;90;21096;-67
2022/05/21 02:26:21;;;;;;;6.53;4.30;;;;;;;;;;1586445;90;21545;-68
2022/05/21 02:28:49;;;;;;;6.85;4.08;;;;;;;;;;1598892;90;21092;-68
2022/05/21 02:31:15;;;;;;;5.28;3.77;;;;;;;;;;1591425;90;21391;-69
2022/05/21 02:33:41;;;;;;;7.78;4.05;;;;;;;;;;1585486;90;21028;-68
2022/05/21 02:36:07;;;;;;;6.95;4.10;;;;;;;;;;1586226;90;21076;-68
2022/05/21 02:41:19;;;;;;;5.33;3.70;;;;;;;;;;1597560;90;21038;-70
2022/05/21 02:43:46;;;;;;;7.67;4.28;;;;;;;;;;1598804;90;21081;-68
2022/05/21 02:46:12;;;;;;;5.70;4.00;;;;;;;;;;1587987;90;21112;-68
2022/05/21 02:48:38;;;;;;;6.65;4.00;;;;;;;;;;1585658;90;21080;-68
2022/05/21 02:51:07;;;;;;;6.08;4.25;;;;;;;;;;1594620;90;21104;-68
2022/05/21 02:53:33;;;;;;;6.90;4.08;;;;;;;;;;1588975;90;21108;-69
2022/05/21 02:56:03;;;;;;;6.03;3.67;;;;;;;;;;1585311;90;21069;-68
2022/05/21 02:58:30;;;;;;;5.17;3.85;;;;;;;;;;1586998;90;21088;-69
2022/05/21 03:00:56;;;;;;;5.83;3.95;;;;;;;;;;1594465;90;21108;-68
2022/05/21 03:03:22;;;;;;;6.10;4.10;;;;;;;;;;1590979;88;21638;-69
2022/05/21 03:05:48;;;;;;;7.42;4.33;;;;;;;;;;1612062;89;21084;-68
2022/05/21 03:11:02;;;;;;;6.72;4.30;;;;;;;;;;1612496;89;21104;-67
2022/05/21 03:13:31;;;;;;;5.03;3.95;;;;;;;;;;1612421;89;21100;-69
2022/05/21 03:15:58;;;;;;;7.20;4.08;;;;;;;;;;1613044;89;21072;-69
2022/05/21 03:18:25;;;;;;;7.33;4.05;;;;;;;;;;1610539;89;21531;-69
2022/05/21 03:20:51;;;;;;;5.50;4.20;;;;;;;;;;1612011;89;21121;-69
2022/05/21 03:23:17;;;;;;;6.03;3.98;;;;;;;;;;1612567;89;21093;-69
2022/05/21 03:25:45;;;;;;;5.83;3.72;;;;;;;;;;1612611;89;21340;-69
2022/05/21 03:28:18;;;;;;;6.80;3.98;;;;;;;;;;1613391;89;21137;-69
2022/05/21 03:30:45;;;;;;;6.83;4.05;;;;;;;;;;1610874;89;21032;-67
2022/05/21 03:33:11;;;;;;;5.25;3.60;;;;;;;;;;1608333;89;21150;-68
2022/05/21 03:35:40;;;;;;;6.45;4.20;;;;;;;;;;1608257;89;21128;-68
2022/05/21 03:38:07;;;;;;;5.83;3.87;;;;;;;;;;1609777;89;21129;-67
2022/05/21 03:40:36;;;;;;;7.03;3.80;;;;;;;;;;1612384;89;21104;-69
2022/05/21 03:43:03;;;;;;;5.62;4.08;;;;;;;;;;1612294;89;21206;-68
2022/05/21 03:45:30;;;;;;;4.95;3.98;;;;;;;;;;1613443;89;21056;-68
2022/05/21 03:47:56;;;;;;;5.53;3.95;;;;;;;;;;1613002;89;21064;-69
2022/05/21 03:50:24;;;;;;;4.78;3.75;;;;;;;;;;1632905;88;21111;-68
2022/05/21 03:52:50;;;;;;;5.78;3.47;;;;;;;;;;1636049;88;21088;-69
2022/05/21 03:55:17;;;;;;;5.20;3.52;;;;;;;;;;1636055;88;21107;-68
2022/05/21 03:57:45;;;;;;;7.92;4.03;;;;;;;;;;1633345;88;21084;-69
2022/05/21 04:00:12;;;;;;;6.42;3.90;;;;;;;;;;1633133;88;20994;-69
2022/05/21 04:02:39;;;;;;;6.87;3.70;;;;;;;;;;1636010;86;21564;-69
2022/05/21 04:05:06;;;;;;;7.70;3.85;;;;;;;;;;1628333;87;21584;-69
2022/05/21 04:07:32;;;;;;;5.70;3.90;;;;;;;;;;1627101;88;21650;-69
2022/05/21 04:09:59;;;;;;;7.60;3.85;;;;;;;;;;1623163;88;21561;-69
2022/05/21 04:12:25;;;;;;;5.85;3.67;;;;;;;;;;1625471;88;21835;-69
2022/05/21 04:14:51;;;;;;;7.08;4.30;;;;;;;;;;1624537;88;21027;-69
2022/05/21 04:17:17;;;;;;;6.70;3.90;;;;;;;;;;1628178;88;21027;-69
2022/05/21 04:19:44;;;;;;;6.65;4.40;;;;;;;;;;1627377;88;21098;-69
2022/05/21 04:22:11;;;;;;;7.47;4.22;;;;;;;;;;1632302;88;21081;-69
2022/05/21 04:24:38;;;;;;;6.97;3.90;;;;;;;;;;1628127;88;21057;-69
2022/05/21 04:27:07;;;;;;;7.25;4.03;;;;;;;;;;1630743;88;21148;-69
2022/05/21 04:29:34;;;;;;;6.40;4.17;;;;;;;;;;1632055;88;21108;-70
2022/05/21 04:32:00;;;;;;;5.33;3.90;;;;;;;;;;1644638;87;21051;-69
2022/05/21 04:34:26;;;;;;;5.72;3.90;;;;;;;;;;1635161;86;21051;-69
2022/05/21 04:36:53;;;;;;;5.50;4.10;;;;;;;;;;1639638;86;21108;-70
2022/05/21 04:39:19;;;;;;;8.03;3.95;;;;;;;;;;1618102;88;22101;-70
2022/05/21 04:41:46;;;;;;;6.80;4.08;;;;;;;;;;1620778;88;21120;-69
2022/05/21 04:44:13;;;;;;;5.85;4.00;;;;;;;;;;1613116;88;21569;-69
2022/05/21 04:46:39;;;;;;;5.22;4.00;;;;;;;;;;1587856;89;21558;-70
2022/05/21 04:49:06;;;;;;;4.62;3.90;;;;;;;;;;1665386;86;21590;-70
2022/05/21 04:51:32;;;;;;;6.37;3.75;;;;;;;;;;1666226;86;21087;-69
2022/05/21 04:53:58;;;;;;;6.35;3.72;;;;;;;;;;1669047;86;21052;-70
2022/05/21 04:56:25;;;;;;;5.35;3.70;;;;;;;;;;1665628;86;21530;-70
2022/05/21 04:58:52;;;;;;;7.58;4.05;;;;;;;;;;1666445;86;21032;-70
2022/05/21 05:01:18;;;;;;;5.33;3.90;;;;;;;;;;1666283;86;21099;-71
2022/05/21 05:03:44;;;;;;;6.10;3.80;;;;;;;;;;1666059;85;21099;-70
2022/05/21 05:06:10;;;;;;;6.00;4.20;;;;;;;;;;1657439;86;21037;-70
2022/05/21 05:08:36;;;;;;;7.10;4.08;;;;;;;;;;1655428;87;21112;-70
2022/05/21 05:11:06;;;;;;;6.37;3.80;;;;;;;;;;1656231;87;21575;-70
2022/05/21 05:13:32;;;;;;;6.80;3.98;;;;;;;;;;1656201;87;21132;-70
2022/05/21 05:15:58;;;;;;;5.75;4.22;;;;;;;;;;1656230;87;21100;-70
2022/05/21 05:18:30;;;;;;;6.33;4.30;;;;;;;;;;1655998;87;21056;-70
2022/05/21 05:20:53;;;;;;;5.60;3.60;;;;;;;;;;1646013;87;21061;-71
2022/05/21 05:23:19;;;;;;;5.70;4.00;;;;;;;;;;1636872;88;21026;-71
2022/05/21 05:25:45;;;;;;;6.17;3.90;;;;;;;;;;1636844;88;21010;-68
2022/05/21 05:28:15;;;;;;;6.20;3.75;;;;;;;;;;1640153;87;21025;-70
2022/05/21 05:30:42;;;;;;;6.35;3.80;;;;;;;;;;1640762;87;21052;-70
2022/05/21 05:33:07;;;;;;;6.28;3.80;;;;;;;;;;1641145;87;21036;-69
2022/05/21 05:35:34;;;;;;;6.42;4.35;;;;;;;;;;1641810;87;21083;-70
2022/05/21 05:38:05;;;;;;;8.50;3.90;;;;;;;;;;1648609;87;21044;-70
2022/05/21 05:40:33;;;;;;;8.03;4.25;;;;;;;;;;1656133;87;21147;-70
2022/05/21 05:43:00;;;;;;;4.87;3.70;;;;;;;;;;1656162;87;21045;-69
2022/05/21 05:45:26;;;;;;;9.53;4.30;;;;;;;;;;1656080;87;21068;-70
2022/05/21 05:47:53;;;;;;;5.97;4.55;;;;;;;;;;1648626;87;20984;-69
2022/05/21 05:50:19;;;;;;;6.37;4.00;;;;;;;;;;1649250;87;21056;-69
2022/05/21 05:52:45;;;;;;;6.28;3.90;;;;;;;;;;1611437;89;20985;-69
2022/05/21 05:55:12;;;;;;;11.25;4.60;;;;;;;;;;1641821;87;21116;-69
2022/05/21 05:57:38;;;;;;;6.58;4.40;;;;;;;;;;1641085;87;21080;-69
2022/05/21 06:00:06;;;;;;;6.87;4.10;;;;;;;;;;1641026;87;21004;-69
2022/05/21 06:05:19;;;;;;;7.83;4.15;;;;;;;;;;1653843;85;21147;-69
2022/05/21 06:07:50;;;;;;;4.83;4.00;;;;;;;;;;1656111;87;21063;-69
2022/05/21 06:10:17;;;;;;;7.33;4.08;;;;;;;;;;1642460;87;21552;-69
2022/05/21 06:12:45;;;;;;;6.78;4.50;;;;;;;;;;1640849;87;21513;-69
2022/05/21 06:15:12;;;;;;;6.47;3.72;;;;;;;;;;1640890;87;21108;-69
2022/05/21 06:17:38;;;;;;;5.70;4.22;;;;;;;;;;1641118;87;21032;-69
2022/05/21 06:20:05;;;;;;;6.42;4.30;;;;;;;;;;1641564;87;21129;-69
2022/05/21 06:22:33;;;;;;;7.87;4.25;;;;;;;;;;1647015;87;21559;-69
2022/05/21 06:25:00;;;;;;;7.15;4.47;;;;;;;;;;1641337;87;21036;-69
2022/05/21 06:27:26;;;;;;;6.17;4.53;;;;;;;;;;1642412;87;21072;-69
2022/05/21 06:29:53;;;;;;;9.48;4.53;;;;;;;;;;1641140;87;21064;-69
2022/05/21 06:32:19;;;;;;;5.87;4.47;;;;;;;;;;1641168;87;21028;-69
2022/05/21 06:34:45;;;;;;;6.90;4.70;;;;;;;;;;1616633;87;21316;-69
2022/05/21 06:37:12;;;;;;;6.40;4.00;;;;;;;;;;1642366;87;21698;-69
2022/05/21 06:39:38;;;;;;;6.83;4.25;;;;;;;;;;1649931;87;21072;-70
2022/05/21 06:42:07;;;;;;;6.20;4.20;;;;;;;;;;1656106;87;21555;-69
2022/05/21 06:47:20;;;;;;;7.58;4.60;;;;;;;;;;1810112;79;22930;-70
2022/05/21 06:49:47;;;;;;;5.97;4.42;;;;;;;;;;1792860;80;21071;-70
2022/05/21 06:52:13;;;;;;;4.83;4.22;;;;;;;;;;1792911;80;21024;-69
2022/05/21 06:54:39;;;;;;;7.85;4.60;;;;;;;;;;1783560;80;20981;-70
2022/05/21 06:57:10;;;;;;;8.15;4.28;;;;;;;;;;1755887;82;21551;-68
2022/05/21 06:59:36;;;;;;;7.08;4.30;;;;;;;;;;1755808;82;21107;-69
2022/05/21 07:02:02;;;;;;;6.25;4.42;;;;;;;;;;1791459;80;21059;-69
2022/05/21 07:07:34;;;;;;;6.70;4.40;;;;;;;;;;1775076;79;21057;-68
2022/05/21 07:10:04;;;;;;;5.60;4.50;;;;;;;;;;1793055;80;21179;-70
2022/05/21 07:12:31;;;;;;;6.33;4.30;;;;;;;;;;1774261;80;21573;-69
2022/05/21 07:14:59;;;;;;;5.85;3.70;;;;;;;;;;1761860;81;21038;-69
2022/05/21 07:17:25;;;;;;;7.10;4.35;;;;;;;;;;1761543;81;21009;-69
2022/05/21 07:19:51;;;;;;;6.08;3.87;;;;;;;;;;1761565;81;20983;-69
2022/05/21 07:22:17;;;;;;;5.92;4.30;;;;;;;;;;1761727;81;20999;-69
2022/05/21 07:24:44;;;;;;;5.28;4.03;;;;;;;;;;1779296;80;21562;-69
2022/05/21 07:27:12;;;;;;;5.97;4.50;;;;;;;;;;1792955;80;21036;-70
2022/05/21 07:29:39;;;;;;;4.67;3.90;;;;;;;;;;1792970;80;21008;-68
2022/05/21 07:32:05;;;;;;;5.90;4.25;;;;;;;;;;1793021;80;21048;-68
2022/05/21 07:34:31;;;;;;;5.78;4.60;;;;;;;;;;1792989;80;21060;-69
2022/05/21 07:36:59;;;;;;;5.62;4.05;;;;;;;;;;1792678;80;21024;-69
2022/05/21 07:39:26;;;;;;;6.78;3.80;;;;;;;;;;1781664;78;20982;-69
2022/05/21 07:41:52;;;;;;;8.23;4.45;;;;;;;;;;1784184;80;21017;-69
2022/05/21 07:44:18;;;;;;;7.33;4.40;;;;;;;;;;1784189;80;21021;-69
2022/05/21 07:46:45;;;;;;;8.23;5.00;;;;;;;;;;1784354;80;21053;-69
2022/05/21 07:49:12;;;;;;;5.65;4.30;;;;;;;;;;1779180;80;21052;-69
2022/05/21 07:51:39;;;;;;;7.62;4.30;;;;;;;;;;1779162;81;21489;-70
2022/05/21 07:54:05;;;;;;;7.72;4.35;;;;;;;;;;1779569;81;20966;-69
2022/05/21 07:56:33;;;;;;;8.23;4.40;;;;;;;;;;1779303;80;21315;-69
2022/05/21 07:58:59;;;;;;;4.87;4.10;;;;;;;;;;1778856;80;21568;-69
2022/05/21 08:01:24;;;;;;;7.08;3.87;;;;;;;;;;1775707;80;21056;-70
2022/05/21 08:03:52;;;;;;;7.55;4.25;;;;;;;;;;1776922;81;21124;-70
2022/05/21 08:06:18;;;;;;;5.78;4.28;;;;;;;;;;1775065;81;21073;-70
2022/05/21 08:08:45;;;;;;;5.47;4.12;;;;;;;;;;1768012;81;21108;-71
2022/05/21 08:11:12;;;;;;;8.13;4.15;;;;;;;;;;1747999;81;21608;-69
2022/05/21 08:13:40;;;;;;;8.03;3.92;;;;;;;;;;1770210;81;21052;-70
2022/05/21 08:16:06;;;;;;;6.97;4.30;;;;;;;;;;1777148;81;21028;-70
2022/05/21 08:18:32;;;;;;;5.00;3.50;;;;;;;;;;1777200;81;21068;-70
2022/05/21 08:20:58;;;;;;;6.80;3.92;;;;;;;;;;1777162;81;21553;-70
2022/05/21 08:28:55;;;;;;;5.70;3.37;;;;;;;;;;1777015;81;21073;-70
2022/05/21 08:31:21;;;;;;;4.15;3.40;;;;;;;;;;1777150;81;20990;-70
2022/05/21 08:33:47;;;;;;;8.75;4.22;;;;;;;;;;1771298;79;21501;-69
2022/05/21 08:36:13;;;;;;;5.55;3.58;;;;;;;;;;1775022;81;21233;-69
2022/05/21 08:38:41;;;;;;;8.70;3.90;;;;;;;;;;1762427;81;21599;-71
2022/05/21 08:41:11;;;;;;;11.43;4.35;;;;;;;;;;1756915;79;21037;-69
2022/05/21 08:43:41;;;;;;;4.70;3.62;;;;;;;;;;1748374;81;21040;-69
2022/05/21 08:46:09;;;;;;;4.33;3.40;;;;;;;;;;1748744;81;21092;-70
2022/05/21 08:48:36;;;;;;;7.40;3.70;;;;;;;;;;1767954;79;21758;-70
2022/05/21 08:51:04;;;;;;;5.95;4.25;;;;;;;;;;1749686;81;21021;-70
2022/05/21 08:53:32;;;;;;;7.30;3.62;;;;;;;;;;1748077;82;21072;-68
2022/05/21 08:55:59;;;;;;;6.35;3.55;;;;;;;;;;1747930;81;21079;-69
2022/05/21 08:58:35;;;;;;;6.15;3.80;;;;;;;;;;1748117;81;21070;-70
2022/05/21 09:01:01;;;;;;;8.33;4.10;;;;;;;;;;1754991;81;21029;-71
2022/05/21 09:03:27;;;;;;;5.72;3.70;;;;;;;;;;1774695;81;21034;-70
2022/05/21 09:05:55;;;;;;;6.10;3.55;;;;;;;;;;1759099;81;21525;-69
2022/05/21 09:08:27;;;;;;;7.42;3.70;;;;;;;;;;1772099;81;21560;-69
2022/05/21 09:10:56;;;;;;;4.25;3.37;;;;;;;;;;1763717;79;21013;-69
2022/05/21 09:13:27;;;;;;;5.58;3.47;;;;;;;;;;1764175;81;21072;-70
2022/05/21 09:18:38;;;;;;;5.78;3.47;;;;;;;;;;1769010;81;21021;-69
2022/05/21 09:21:15;;;;;;;6.78;3.45;;;;;;;;;;1766964;81;20957;-70
2022/05/21 09:23:46;;;;;;;4.80;3.90;;;;;;;;;;1766916;81;21112;-68
2022/05/21 09:26:12;;;;;;;5.95;3.87;;;;;;;;;;1771423;79;20981;-78
2022/05/21 09:28:40;;;;;;;5.45;3.58;;;;;;;;;;1710709;84;21545;-79
2022/05/21 09:31:06;;;;;;;5.97;3.45;;;;;;;;;;1709201;84;21620;-79
2022/05/21 09:33:34;;;;;;;6.53;3.65;;;;;;;;;;1739982;82;21085;-78
2022/05/21 09:36:03;;;;;;;5.03;3.50;;;;;;;;;;1777084;81;21052;-86
2022/05/21 09:38:33;;;;;;;7.53;4.00;;;;;;;;;;1777645;81;21584;-86
2022/05/21 09:41:04;;;;;;;6.35;4.10;;;;;;;;;;1777674;81;21138;-88
2022/05/21 09:46:17;;;;;;;5.60;4.15;;;;;;;;;;1778310;80;21061;-88
2022/05/21 09:48:46;;;;;;;5.33;3.80;;;;;;;;;;1786400;80;21112;-90
2022/05/21 09:51:30;;;;;;;5.40;4.10;;;;;;;;;;1786978;80;21016;-90
2022/05/21 09:53:57;;;;;;;6.75;4.72;;;;;;;;;;1787537;80;21021;-90
2022/05/21 09:56:28;;;;;;;6.55;4.15;;;;;;;;;;1787006;80;21675;-89
2022/05/21 09:58:59;;;;;;;6.05;4.40;;;;;;;;;;1786896;80;21002;-89
2022/05/21 10:01:36;;;;;;;6.65;4.35;;;;;;;;;;1775122;80;21025;-88
2022/05/21 10:04:06;;;;;;;5.53;4.62;;;;;;;;;;1786688;80;21060;-89
2022/05/21 10:06:32;;;;;;;6.10;4.60;;;;;;;;;;1774719;80;21084;-88
2022/05/21 10:11:53;;;;;;;7.40;4.55;;;;;;;;;;1788242;80;21032;-88
2022/05/21 10:14:23;;;;;;;7.60;4.58;;;;;;;;;;1787320;80;21517;-89
2022/05/21 10:16:54;;;;;;;7.70;5.05;;;;;;;;;;1787943;80;20962;-88
2022/05/21 10:19:25;;;;;;;6.12;4.12;;;;;;;;;;1788509;80;21069;-89
2022/05/21 10:22:09;;;;;;;7.67;4.60;;;;;;;;;;1786106;80;21583;-90
2022/05/21 10:24:37;;;;;;;9.85;5.17;;;;;;;;;;1786751;80;21013;-89
2022/05/21 10:27:12;;;;;;;7.03;4.80;;;;;;;;;;1786347;80;21524;-89
2022/05/21 10:29:41;;;;;;;7.22;4.65;;;;;;;;;;1785729;80;21100;-89
2022/05/21 10:32:27;;;;;;;8.65;4.80;;;;;;;;;;1786438;80;21120;-89
2022/05/21 10:35:12;;;;;;;8.28;4.90;;;;;;;;;;1786481;80;21025;-90
2022/05/21 10:37:41;;;;;;;7.45;4.92;;;;;;;;;;1786404;80;21088;-89
2022/05/21 10:40:27;;;;;;;5.72;4.25;;;;;;;;;;1786702;80;21044;-89
2022/05/21 10:43:07;;;;;;;6.72;4.75;;;;;;;;;;1786897;80;21013;-88
2022/05/21 10:45:52;;;;;;;6.20;5.17;;;;;;;;;;1788068;80;21017;-88
2022/05/21 10:48:27;;;;;;;8.65;4.78;;;;;;;;;;1786761;80;21064;-88
2022/05/21 10:50:55;;;;;;;5.33;4.17;;;;;;;;;;1788032;80;21076;-90
2022/05/21 10:53:27;;;;;;;6.70;4.78;;;;;;;;;;1787163;80;21113;-88
2022/05/21 10:56:13;;;;;;;6.58;4.70;;;;;;;;;;1787094;80;21068;-90
2022/05/21 10:58:45;;;;;;;8.35;5.00;;;;;;;;;;1786876;80;21021;-88
2022/05/21 11:01:15;;;;;;;5.50;4.28;;;;;;;;;;1786986;80;21009;-89
2022/05/21 11:03:47;;;;;;;8.13;4.75;;;;;;;;;;1786318;80;21059;-89
2022/05/21 11:06:15;;;;;;;5.87;4.72;;;;;;;;;;1786318;80;20989;-89
2022/05/21 11:08:52;;;;;;;5.87;4.55;;;;;;;;;;1786963;80;21517;-89
2022/05/21 11:11:21;;;;;;;6.85;4.67;;;;;;;;;;1787609;80;21036;-88
2022/05/21 11:14:00;;;;;;;7.40;4.87;;;;;;;;;;1787815;80;21144;-89
2022/05/21 11:16:29;;;;;;;6.75;5.33;;;;;;;;;;1786562;80;21061;-90
2022/05/21 11:18:57;;;;;;;8.05;4.78;;;;;;;;;;1786372;80;21045;-89
2022/05/21 11:21:30;;;;;;;6.00;4.58;;;;;;;;;;1786824;80;21072;-90
2022/05/21 11:24:08;;;;;;;8.38;5.08;;;;;;;;;;1788171;80;21096;-88
2022/05/21 11:26:35;;;;;;;5.70;4.90;;;;;;;;;;1787022;80;21036;-90
2022/05/21 11:29:08;;;;;;;5.37;4.70;;;;;;;;;;1786031;80;21029;-89
2022/05/21 11:37:26;;;;;;;5.53;4.30;;;;;;;;;;1780821;80;20981;-88
2022/05/21 11:39:54;;;;;;;7.00;5.50;;;;;;;;;;1766476;80;21019;-76
2022/05/21 11:42:22;;;;;;;7.10;5.40;;;;;;;;;;1758099;80;21375;-75
2022/05/21 11:45:02;;;;;;;7.58;5.30;;;;;;;;;;1766400;79;20989;-74
2022/05/21 11:47:39;;;;;;;6.20;5.28;;;;;;;;;;1779359;80;21107;-79
2022/05/21 11:50:10;;;;;;;7.47;5.10;;;;;;;;;;1785530;80;21036;-78
2022/05/21 11:52:40;;;;;;;8.53;5.50;;;;;;;;;;1756271;81;21619;-78
2022/05/21 11:55:11;;;;;;;7.25;5.90;;;;;;;;;;1774373;80;21033;-71
2022/05/21 11:57:41;;;;;;;8.33;5.62;;;;;;;;;;1770842;80;20985;-75
2022/05/21 12:00:24;;;;;;;8.05;5.85;;;;;;;;;;1779732;80;20973;-74
2022/05/21 12:02:54;;;;;;;6.53;5.60;;;;;;;;;;1775243;80;21150;-72
2022/05/21 12:05:34;;;;;;;5.97;5.00;;;;;;;;;;1772882;80;21064;-74
2022/05/21 12:08:11;;;;;;;6.70;4.62;;;;;;;;;;1786856;80;21060;-74
2022/05/21 12:11:01;;;;;;;6.35;4.80;;;;;;;;;;1787141;80;21564;-74
2022/05/21 12:13:34;;;;;;;6.22;4.50;;;;;;;;;;1780303;80;21051;-75
2022/05/21 12:16:02;;;;;;;5.75;4.72;;;;;;;;;;1758700;80;21072;-74
2022/05/21 12:18:30;;;;;;;6.30;5.00;;;;;;;;;;1788137;79;21024;-74
2022/05/21 12:20:58;;;;;;;5.08;4.58;;;;;;;;;;1785247;80;21057;-74
2022/05/21 12:23:28;;;;;;;5.97;4.35;;;;;;;;;;1782423;80;21125;-73
2022/05/21 12:25:57;;;;;;;7.15;4.40;;;;;;;;;;1755935;82;21872;-72
2022/05/21 12:28:25;;;;;;;5.97;4.47;;;;;;;;;;1764228;79;21537;-73
2022/05/21 12:31:03;;;;;;;5.85;4.40;;;;;;;;;;1744177;80;21567;-74
2022/05/21 12:33:38;;;;;;;6.83;4.42;;;;;;;;;;1780785;80;21126;-74
2022/05/21 12:36:10;;;;;;;5.30;4.35;;;;;;;;;;1780613;80;21017;-73
2022/05/21 12:38:36;;;;;;;6.47;4.05;;;;;;;;;;1744200;81;20943;-74
2022/05/21 12:41:10;;;;;;;7.95;4.20;;;;;;;;;;1746743;82;21091;-73
2022/05/21 12:43:41;;;;;;;7.10;4.10;;;;;;;;;;1718718;83;21057;-73
2022/05/21 12:46:09;;;;;;;5.60;4.25;;;;;;;;;;1730621;83;21533;-73
2022/05/21 12:48:37;;;;;;;5.85;4.65;;;;;;;;;;1738558;82;21648;-72
2022/05/21 12:51:07;;;;;;;7.45;4.00;;;;;;;;;;1721137;82;21026;-72
2022/05/21 12:53:43;;;;;;;6.15;4.00;;;;;;;;;;1738245;82;21042;-73
2022/05/21 12:56:14;;;;;;;6.58;3.70;;;;;;;;;;1785532;80;21059;-72
2022/05/21 12:58:40;;;;;;;5.40;3.72;;;;;;;;;;1785648;80;21043;-73
2022/05/21 13:01:07;;;;;;;4.37;3.58;;;;;;;;;;1777882;79;21033;-74
2022/05/21 13:03:34;;;;;;;6.78;4.05;;;;;;;;;;1759138;80;21036;-73
2022/05/21 13:06:05;;;;;;;5.35;3.75;;;;;;;;;;1761502;80;21108;-74
2022/05/21 13:08:32;;;;;;;5.37;3.50;;;;;;;;;;1780355;80;21021;-73
2022/05/21 13:11:06;;;;;;;4.50;3.70;;;;;;;;;;1780490;80;21041;-74
2022/05/21 13:13:37;;;;;;;5.70;3.77;;;;;;;;;;1743294;82;21076;-73
2022/05/21 13:16:04;;;;;;;7.37;4.12;;;;;;;;;;1746199;82;21108;-74
2022/05/21 13:18:36;;;;;;;5.78;3.60;;;;;;;;;;1734870;82;21018;-73
2022/05/21 13:21:07;;;;;;;5.67;3.55;;;;;;;;;;1740525;82;21072;-72
2022/05/21 13:23:42;;;;;;;7.72;3.62;;;;;;;;;;1721135;83;21518;-70
2022/05/21 13:26:08;;;;;;;7.92;3.65;;;;;;;;;;1719776;83;21062;-72
2022/05/21 13:28:34;;;;;;;5.00;3.10;;;;;;;;;;1722342;83;21044;-74
2022/05/21 13:31:05;;;;;;;5.15;3.45;;;;;;;;;;1722337;83;21115;-73
2022/05/21 13:33:33;;;;;;;4.20;3.30;;;;;;;;;;1720475;83;21092;-74
2022/05/21 13:36:05;;;;;;;4.40;2.92;;;;;;;;;;1722221;83;21081;-73
2022/05/21 13:38:34;;;;;;;4.37;3.05;;;;;;;;;;1722100;83;21072;-73
2022/05/21 13:41:01;;;;;;;5.08;3.08;;;;;;;;;;1722235;83;21196;-72
2022/05/21 13:43:29;;;;;;;4.10;2.75;;;;;;;;;;1722419;83;21056;-73
2022/05/21 13:45:56;;;;;;;4.17;3.10;;;;;;;;;;1721984;83;21536;-73
2022/05/21 13:48:23;;;;;;;4.22;2.70;;;;;;;;;;1720059;82;21101;-72
2022/05/21 13:50:49;;;;;;;3.30;2.80;;;;;;;;;;1716826;83;21537;-71
2022/05/21 13:53:23;;;;;;;3.47;2.90;;;;;;;;;;1716744;83;21029;-71
2022/05/21 13:55:54;;;;;;;3.92;2.80;;;;;;;;;;1710949;83;21066;-71
2022/05/21 13:58:37;;;;;;;4.60;2.87;;;;;;;;;;1767656;80;21024;-71
2022/05/21 14:01:04;;;;;;;4.87;3.37;;;;;;;;;;1770193;80;21018;-71
2022/05/21 14:03:32;;;;;;;4.10;2.80;;;;;;;;;;1753705;81;21109;-70
2022/05/21 14:05:58;;;;;;;3.80;3.20;;;;;;;;;;1756978;81;21056;-71
2022/05/21 14:08:34;;;;;;;4.05;3.10;;;;;;;;;;1758626;81;21542;-69
2022/05/21 14:11:13;;;;;;;3.25;2.52;;;;;;;;;;1769484;81;21512;-71
2022/05/21 14:13:58;;;;;;;3.25;2.70;;;;;;;;;;1763465;81;21073;-70
2022/05/21 14:16:37;;;;;;;4.62;2.95;;;;;;;;;;1769328;81;21091;-71
2022/05/21 14:19:09;;;;;;;4.58;2.80;;;;;;;;;;1767720;81;21066;-70
2022/05/21 14:21:38;;;;;;;4.20;3.02;;;;;;;;;;1758419;81;20989;-70
2022/05/21 14:24:09;;;;;;;5.78;3.15;;;;;;;;;;1765489;81;21647;-70
2022/05/21 14:26:36;;;;;;;3.87;3.33;;;;;;;;;;1747818;82;21111;-70
2022/05/21 14:29:20;;;;;;;3.47;3.10;;;;;;;;;;1770134;81;21037;-70
2022/05/21 14:31:47;;;;;;;4.72;3.50;;;;;;;;;;1776955;81;21556;-70
2022/05/21 14:34:16;;;;;;;5.65;3.58;;;;;;;;;;1777128;81;20998;-71
2022/05/21 14:36:43;;;;;;;3.72;3.22;;;;;;;;;;1777054;81;21517;-72
2022/05/21 14:39:10;;;;;;;4.83;3.60;;;;;;;;;;1777120;81;20989;-72
2022/05/21 14:41:38;;;;;;;4.22;3.50;;;;;;;;;;1778524;81;20993;-72
2022/05/21 14:44:06;;;;;;;4.58;3.60;;;;;;;;;;1778168;80;21037;-73
2022/05/21 14:49:17;;;;;;;5.47;3.30;;;;;;;;;;1782481;80;21496;-72
2022/05/21 14:54:33;;;;;;;6.55;3.47;;;;;;;;;;1784855;80;21001;-72
2022/05/21 14:56:59;;;;;;;6.03;3.50;;;;;;;;;;1784716;80;21029;-73
2022/05/21 14:59:25;;;;;;;4.58;3.40;;;;;;;;;;1784842;80;21559;-74
2022/05/21 15:01:52;;;;;;;3.60;3.27;;;;;;;;;;1756398;80;21563;-72
2022/05/21 15:04:18;;;;;;;4.28;3.58;;;;;;;;;;1783801;80;21365;-69
2022/05/21 15:06:45;;;;;;;3.55;3.20;;;;;;;;;;1784269;80;21130;-70
2022/05/21 15:09:12;;;;;;;4.40;3.50;;;;;;;;;;1784744;80;21004;-70
2022/05/21 15:11:38;;;;;;;4.00;3.60;;;;;;;;;;1784582;80;21112;-69
2022/05/21 15:14:05;;;;;;;4.78;3.25;;;;;;;;;;1784468;80;21036;-69
2022/05/21 15:16:33;;;;;;;4.95;3.60;;;;;;;;;;1772894;80;21036;-70
2022/05/21 15:18:59;;;;;;;6.40;3.87;;;;;;;;;;1767616;80;21513;-70
2022/05/21 15:21:27;;;;;;;5.62;3.72;;;;;;;;;;1767414;80;21056;-70
2022/05/21 15:23:55;;;;;;;5.95;4.20;;;;;;;;;;1753754;82;21008;-69
2022/05/21 15:26:23;;;;;;;6.78;4.05;;;;;;;;;;1715155;84;21085;-70
2022/05/21 15:28:49;;;;;;;4.67;3.90;;;;;;;;;;1715479;84;21070;-69
2022/05/21 15:31:16;;;;;;;4.62;3.80;;;;;;;;;;1685304;84;21077;-70
2022/05/21 15:33:44;;;;;;;5.37;4.62;;;;;;;;;;1753854;82;21112;-68
2022/05/21 15:36:11;;;;;;;5.33;3.85;;;;;;;;;;1714969;84;21767;-69